Terminal Aerodrome Forecast
Issued by NWS

Home | Current Version | Previous Version | Text Only | Print | Product List | Glossary On
Versions: 1 2 3 4 5 6 7 8 9 10 11 12 13
000
FTUS42 TJSJ 251100
TAFIST
TAF
TIST 251121Z 2512/2612 07005KT P6SM SCT022 BKN040
      TEMPO 2512/2514 -SHRA BKN030
     FM251400 13012KT P6SM FEW030
     FM252300 11008KT P6SM FEW025=

USA.gov is the U.S. government's official web portal to all federal, state and local government web resources and services.